CMA CGM Butterfly — A8NO8 — position and weather

sailwx.info

Track history (hours):
 
Tides and Currents Weather Stations Pressure Air Temp Water Temp Dewpoint Dewpoint Depression Visibility Wind Speed Wind Dir Waves Ship Positions

CMA CGM Butterfly

Last reported at 2014-Aug-22 21:22 UTC. Time now 2014-Aug-22 23:39 UTC.
Position N 30°12' E 123°08'.

Length 350 m; draft 10.4 m.

Type: Ship (hazmat cat A). MMSI: 636091420.

Date/timePositionNaut miles runAvg speedWind from/ knotsBaromVisibWave heightAir tempDewpointWater temp
2014-Aug-22 21:22N 30°12' E 123°08'1212.5
2014-Aug-22 20:26N 30°20' E 122°58'1213.6
2014-Aug-22 19:33N 30°26' E 122°47'1313.3
2014-Aug-22 18:33N 30°30' E 122°32'1313.0
2014-Aug-22 17:33N 30°33' E 122°17'1212.4
2014-Aug-22 16:32N 30°37' E 122°04'1 0.0
2014-Aug-21 14:34N 30°38' E 122°03'10 9.8
2014-Aug-21 13:33N 30°34' E 122°13'4 4.1
2014-Aug-21 12:33N 30°33' E 122°18'7 6.7
2014-Aug-21 11:33N 30°32' E 122°25'9 8.9
2014-Aug-21 10:33N 30°30' E 122°36'8 7.7
2014-Aug-21 09:33N 30°25' E 122°42'0 0.1
2014-Aug-21 08:25N 30°25' E 122°42'0 0.0
2014-Aug-21 07:31N 30°25' E 122°42'0 0.1
2014-Aug-21 05:31N 30°25' E 122°43'0 0.0
2014-Aug-21 04:31N 30°25' E 122°43'0 0.0
2014-Aug-21 03:31N 30°25' E 122°43'0 0.0
2014-Aug-21 02:31N 30°25' E 122°43'0 0.0
2014-Aug-21 01:31N 30°25' E 122°43'0 0.1
2014-Aug-21 00:19N 30°25' E 122°42'0 0.1
2014-Aug-20 23:31N 30°25' E 122°42'0 0.0
2014-Aug-20 22:31N 30°25' E 122°42'0 0.1
2014-Aug-20 21:31N 30°25' E 122°42'0 0.1
2014-Aug-20 20:31N 30°25' E 122°43'0 0.0
2014-Aug-20 19:19N 30°25' E 122°43'0 0.0
2014-Aug-20 18:31N 30°25' E 122°43'0 0.1
2014-Aug-20 17:31N 30°25' E 122°43'0 0.0
2014-Aug-20 16:31N 30°25' E 122°43'0 0.0
2014-Aug-20 15:19N 30°25' E 122°43'0 0.0
2014-Aug-20 14:31N 30°25' E 122°43'0 0.0
2014-Aug-20 13:31N 30°25' E 122°43'0 0.0
2014-Aug-20 12:31N 30°25' E 122°43'0 0.0
2014-Aug-20 11:31N 30°25' E 122°43'0 0.0
2014-Aug-20 10:31N 30°25' E 122°43'0 0.0
2014-Aug-20 09:33N 30°25' E 122°43'1 1.2
2014-Aug-20 08:33N 30°26' E 122°44'8 7.9
2014-Aug-20 07:33N 30°24' E 122°52'1711.5
2014-Aug-20 06:05N 30°09' E 123°02'713.8
2014-Aug-20 05:32N 30°02' E 123°03'1913.2
2014-Aug-20 04:04N 29°42' E 123°03'36413.6
2014-Aug-19 01:23N 24°38' E 119°18'1113.1
2014-Aug-19 00:33N 24°33' E 119°08'1313.2
2014-Aug-18 23:33N 24°25' E 118°56'3712.4
2014-Aug-18 20:33N 24°13' E 118°17'1312.8
2014-Aug-18 19:33N 24°22' E 118°08'8 7.0
2014-Aug-18 18:26N 24°27' E 118°01'0 0.0
2014-Aug-18 15:20N 24°27' E 118°01'0 0.0
2014-Aug-18 13:32N 24°27' E 118°01'0 0.0
2014-Aug-18 12:32N 24°27' E 118°01'0 0.0
2014-Aug-18 11:08N 24°27' E 118°01'0 0.0
2014-Aug-18 10:32N 24°27' E 118°01'0 0.0
2014-Aug-18 09:32N 24°27' E 118°01'0 0.0
2014-Aug-18 08:26N 24°27' E 118°01'0 0.0
2014-Aug-18 07:26N 24°27' E 118°01'0 0.0
2014-Aug-18 06:32N 24°27' E 118°01'0 0.0
2014-Aug-18 05:32N 24°27' E 118°01'0 0.0
2014-Aug-18 04:32N 24°27' E 118°01'0 0.0
2014-Aug-18 03:32N 24°27' E 118°01'0 0.0
2014-Aug-18 02:26N 24°27' E 118°01'0 0.0
2014-Aug-18 01:32N 24°27' E 118°01'0 0.0
2014-Aug-18 00:32N 24°27' E 118°01'51 8.5
2014-Aug-17 18:33N 23°36' E 117°52'1615.9
2014-Aug-17 17:33N 23°29' E 117°37'1715.7
2014-Aug-17 16:27N 23°13' E 117°27'1516.6
2014-Aug-17 15:33N 23°00' E 117°20'1817.6
2014-Aug-17 14:33N 22°44' E 117°13'1717.0
2014-Aug-17 13:33N 22°28' E 117°06'1717.1
2014-Aug-17 12:34N 22°14' E 116°56'1917.4
2014-Aug-17 11:27N 21°57' E 116°47'  
2014-Aug-13 22:21N 01°15' E 104°11'1215.4
2014-Aug-13 21:34N 01°14' E 103°59'1211.3
2014-Aug-13 20:32N 01°14' E 103°47'4 3.3
2014-Aug-13 19:28N 01°17' E 103°45'0 0.0
2014-Aug-13 18:19N 01°17' E 103°45'0 0.0
2014-Aug-13 17:28N 01°17' E 103°45'0 0.0
2014-Aug-13 16:25N 01°17' E 103°45'0 0.0
2014-Aug-13 15:28N 01°17' E 103°45'0 0.0
2014-Aug-13 14:16N 01°17' E 103°45'0 0.0
2014-Aug-13 13:31N 01°17' E 103°45'0 0.0
2014-Aug-13 09:28N 01°17' E 103°45'0 0.0
2014-Aug-13 07:31N 01°17' E 103°45'0 0.0
2014-Aug-13 06:31N 01°17' E 103°45'0 0.0
2014-Aug-13 05:19N 01°17' E 103°45'0 0.0
2014-Aug-13 04:07N 01°17' E 103°45'0 0.0
2014-Aug-13 03:31N 01°17' E 103°45'0 0.0
2014-Aug-13 02:31N 01°17' E 103°45'0 0.0
2014-Aug-13 01:28N 01°17' E 103°45'0 0.0
2014-Aug-13 00:33N 01°17' E 103°45'2 2.3
2014-Aug-12 23:33N 01°15' E 103°47'2 2.1
2014-Aug-12 22:33N 01°15' E 103°45'8 7.7
2014-Aug-12 21:33N 01°12' E 103°37'  
Track history (hours):
 
Tides and Currents Weather Stations Pressure Air Temp Water Temp Dewpoint Dewpoint Depression Visibility Wind Speed Wind Dir Waves Ship Positions

CMA CGM Butterfly

Last reported at 2014-Aug-22 21:22 UTC. Time now 2014-Aug-22 23:39 UTC.
Position N 30°12' E 123°08'.

Length 350 m; draft 10.4 m.

Type: Ship (hazmat cat A). MMSI: 636091420.

Date/timePositionNaut miles runAvg speedWind from/ knotsBaromVisibWave heightAir tempDewpointWater temp
2014-Aug-22 21:22N 30°12' E 123°08'1212.5
2014-Aug-22 20:26N 30°20' E 122°58'1213.6
2014-Aug-22 19:33N 30°26' E 122°47'1313.3
2014-Aug-22 18:33N 30°30' E 122°32'1313.0
2014-Aug-22 17:33N 30°33' E 122°17'1212.4
2014-Aug-22 16:32N 30°37' E 122°04'1 0.0
2014-Aug-21 14:34N 30°38' E 122°03'10 9.8
2014-Aug-21 13:33N 30°34' E 122°13'4 4.1
2014-Aug-21 12:33N 30°33' E 122°18'7 6.7
2014-Aug-21 11:33N 30°32' E 122°25'9 8.9
2014-Aug-21 10:33N 30°30' E 122°36'8 7.7
2014-Aug-21 09:33N 30°25' E 122°42'0 0.1
2014-Aug-21 08:25N 30°25' E 122°42'0 0.0
2014-Aug-21 07:31N 30°25' E 122°42'0 0.1
2014-Aug-21 05:31N 30°25' E 122°43'0 0.0
2014-Aug-21 04:31N 30°25' E 122°43'0 0.0
2014-Aug-21 03:31N 30°25' E 122°43'0 0.0
2014-Aug-21 02:31N 30°25' E 122°43'0 0.0
2014-Aug-21 01:31N 30°25' E 122°43'0 0.1
2014-Aug-21 00:19N 30°25' E 122°42'0 0.1
2014-Aug-20 23:31N 30°25' E 122°42'0 0.0
2014-Aug-20 22:31N 30°25' E 122°42'0 0.1
2014-Aug-20 21:31N 30°25' E 122°42'0 0.1
2014-Aug-20 20:31N 30°25' E 122°43'0 0.0
2014-Aug-20 19:19N 30°25' E 122°43'0 0.0
2014-Aug-20 18:31N 30°25' E 122°43'0 0.1
2014-Aug-20 17:31N 30°25' E 122°43'0 0.0
2014-Aug-20 16:31N 30°25' E 122°43'0 0.0
2014-Aug-20 15:19N 30°25' E 122°43'0 0.0
2014-Aug-20 14:31N 30°25' E 122°43'0 0.0
2014-Aug-20 13:31N 30°25' E 122°43'0 0.0
2014-Aug-20 12:31N 30°25' E 122°43'0 0.0
2014-Aug-20 11:31N 30°25' E 122°43'0 0.0
2014-Aug-20 10:31N 30°25' E 122°43'0 0.0
2014-Aug-20 09:33N 30°25' E 122°43'1 1.2
2014-Aug-20 08:33N 30°26' E 122°44'8 7.9
2014-Aug-20 07:33N 30°24' E 122°52'1711.5
2014-Aug-20 06:05N 30°09' E 123°02'713.8
2014-Aug-20 05:32N 30°02' E 123°03'1913.2
2014-Aug-20 04:04N 29°42' E 123°03'36413.6
2014-Aug-19 01:23N 24°38' E 119°18'1113.1
2014-Aug-19 00:33N 24°33' E 119°08'1313.2
2014-Aug-18 23:33N 24°25' E 118°56'3712.4
2014-Aug-18 20:33N 24°13' E 118°17'1312.8
2014-Aug-18 19:33N 24°22' E 118°08'8 7.0
2014-Aug-18 18:26N 24°27' E 118°01'0 0.0
2014-Aug-18 15:20N 24°27' E 118°01'0 0.0
2014-Aug-18 13:32N 24°27' E 118°01'0 0.0
2014-Aug-18 12:32N 24°27' E 118°01'0 0.0
2014-Aug-18 11:08N 24°27' E 118°01'0 0.0
2014-Aug-18 10:32N 24°27' E 118°01'0 0.0
2014-Aug-18 09:32N 24°27' E 118°01'0 0.0
2014-Aug-18 08:26N 24°27' E 118°01'0 0.0
2014-Aug-18 07:26N 24°27' E 118°01'0 0.0
2014-Aug-18 06:32N 24°27' E 118°01'0 0.0
2014-Aug-18 05:32N 24°27' E 118°01'0 0.0
2014-Aug-18 04:32N 24°27' E 118°01'0 0.0
2014-Aug-18 03:32N 24°27' E 118°01'0 0.0
2014-Aug-18 02:26N 24°27' E 118°01'0 0.0
2014-Aug-18 01:32N 24°27' E 118°01'0 0.0
2014-Aug-18 00:32N 24°27' E 118°01'51 8.5
2014-Aug-17 18:33N 23°36' E 117°52'1615.9
2014-Aug-17 17:33N 23°29' E 117°37'1715.7
2014-Aug-17 16:27N 23°13' E 117°27'1516.6
2014-Aug-17 15:33N 23°00' E 117°20'1817.6
2014-Aug-17 14:33N 22°44' E 117°13'1717.0
2014-Aug-17 13:33N 22°28' E 117°06'1717.1
2014-Aug-17 12:34N 22°14' E 116°56'1917.4
2014-Aug-17 11:27N 21°57' E 116°47'  
2014-Aug-13 22:21N 01°15' E 104°11'1215.4
2014-Aug-13 21:34N 01°14' E 103°59'1211.3
2014-Aug-13 20:32N 01°14' E 103°47'4 3.3
2014-Aug-13 19:28N 01°17' E 103°45'0 0.0
2014-Aug-13 18:19N 01°17' E 103°45'0 0.0
2014-Aug-13 17:28N 01°17' E 103°45'0 0.0
2014-Aug-13 16:25N 01°17' E 103°45'0 0.0
2014-Aug-13 15:28N 01°17' E 103°45'0 0.0
2014-Aug-13 14:16N 01°17' E 103°45'0 0.0
2014-Aug-13 13:31N 01°17' E 103°45'0 0.0
2014-Aug-13 09:28N 01°17' E 103°45'0 0.0
2014-Aug-13 07:31N 01°17' E 103°45'0 0.0
2014-Aug-13 06:31N 01°17' E 103°45'0 0.0
2014-Aug-13 05:19N 01°17' E 103°45'0 0.0
2014-Aug-13 04:07N 01°17' E 103°45'0 0.0
2014-Aug-13 03:31N 01°17' E 103°45'0 0.0
2014-Aug-13 02:31N 01°17' E 103°45'0 0.0
2014-Aug-13 01:28N 01°17' E 103°45'0 0.0
2014-Aug-13 00:33N 01°17' E 103°45'2 2.3
2014-Aug-12 23:33N 01°15' E 103°47'2 2.1
2014-Aug-12 22:33N 01°15' E 103°45'8 7.7
2014-Aug-12 21:33N 01°12' E 103°37'  

Dump ship's entire track history